createdAt,value
2019-02-21T00:00:54.587Z,40.90
2019-02-21T00:03:30.401Z,41.03
2019-02-21T00:06:05.294Z,40.73
2019-02-21T00:08:40.047Z,42.67
2019-02-21T00:11:14.803Z,44.00
2019-02-21T00:13:49.675Z,42.90
2019-02-21T00:16:24.483Z,42.87
2019-02-21T00:18:59.231Z,44.73
2019-02-21T00:21:33.976Z,43.87
2019-02-21T00:24:08.739Z,43.63
2019-02-21T00:26:44.299Z,43.33
2019-02-21T00:29:19.279Z,44.43
2019-02-21T00:31:54.019Z,43.63
2019-02-21T00:34:28.838Z,43.43
2019-02-21T00:37:03.655Z,43.33
2019-02-21T00:39:39.475Z,58.57
2019-02-21T00:42:14.213Z,49.10
2019-02-21T00:44:49.074Z,45.83
2019-02-21T00:47:23.931Z,44.07
2019-02-21T00:49:58.756Z,44.20
2019-02-21T00:52:33.487Z,43.63
2019-02-21T00:55:08.415Z,42.60
2019-02-21T00:57:43.228Z,46.27
2019-02-21T01:00:18.128Z,44.37
2019-02-21T01:02:52.940Z,43.70
2019-02-21T01:05:27.855Z,42.67
2019-02-21T01:08:02.690Z,42.73
2019-02-21T01:10:38.541Z,42.50
2019-02-21T01:13:14.205Z,42.53
2019-02-21T01:15:49.157Z,46.37
2019-02-21T01:18:23.920Z,45.93
2019-02-21T01:20:59.648Z,48.50
2019-02-21T01:23:34.412Z,43.43
2019-02-21T01:26:09.361Z,41.57
2019-02-21T01:28:44.527Z,41.10
2019-02-21T01:31:19.463Z,42.77
2019-02-21T01:33:54.208Z,42.23
2019-02-21T01:36:29.053Z,42.03
2019-02-21T01:39:04.956Z,41.43
2019-02-21T01:41:39.874Z,41.60
2019-02-21T01:44:14.616Z,41.27
2019-02-21T01:46:50.371Z,41.63
2019-02-21T01:49:25.209Z,40.57
2019-02-21T01:52:00.379Z,41.00
2019-02-21T01:54:35.208Z,41.10
2019-02-21T01:57:11.045Z,40.80
2019-02-21T01:59:45.796Z,42.40
2019-02-21T02:02:20.635Z,41.40
2019-02-21T02:04:55.484Z,41.33
2019-02-21T02:07:30.324Z,40.90
2019-02-21T02:10:06.919Z,41.63
2019-02-21T02:12:41.684Z,43.57
2019-02-21T02:15:16.612Z,60.73
2019-02-21T02:17:51.487Z,90.13
2019-02-21T02:20:27.321Z,68.10
2019-02-21T02:23:02.148Z,42.90
2019-02-21T02:25:36.891Z,41.10
2019-02-21T02:28:30.061Z,41.40
2019-02-21T02:31:04.964Z,40.33
2019-02-21T02:33:40.169Z,39.83
2019-02-21T02:36:15.063Z,42.00
2019-02-21T02:38:49.880Z,41.20
2019-02-21T02:41:24.711Z,41.90
2019-02-21T02:43:59.457Z,41.27
2019-02-21T02:46:37.603Z,42.30
2019-02-21T02:49:12.412Z,42.30
2019-02-21T02:51:48.148Z,42.70
2019-02-21T02:54:22.967Z,43.00
2019-02-21T02:56:57.784Z,43.70
2019-02-21T02:59:40.832Z,42.27
2019-02-21T03:02:08.955Z,41.97
2019-02-21T03:04:44.784Z,41.83
2019-02-21T03:07:19.628Z,42.87
2019-02-21T03:09:54.636Z,42.60
2019-02-21T03:12:29.492Z,43.30
2019-02-21T03:15:05.084Z,43.43
2019-02-21T03:17:39.887Z,43.33
2019-02-21T03:20:14.663Z,44.77
2019-02-21T03:22:49.467Z,44.20
2019-02-21T03:25:24.255Z,44.17
2019-02-21T03:27:58.986Z,43.53
2019-02-21T03:30:33.708Z,42.87
2019-02-21T03:33:08.456Z,42.87
2019-02-21T03:35:43.283Z,41.30
2019-02-21T03:38:18.186Z,41.37
2019-02-21T03:40:53.030Z,41.03
2019-02-21T03:43:27.779Z,40.10
2019-02-21T03:46:02.574Z,41.00
2019-02-21T03:48:37.308Z,38.90
2019-02-21T03:51:12.022Z,39.67
2019-02-21T03:53:46.804Z,40.87
2019-02-21T03:56:21.650Z,40.70
2019-02-21T03:58:56.455Z,43.30
2019-02-21T04:01:31.337Z,41.77
2019-02-21T04:04:06.051Z,42.00
2019-02-21T04:06:41.987Z,41.13
2019-02-21T04:09:16.757Z,41.30
2019-02-21T04:11:51.647Z,41.20
2019-02-21T04:14:26.515Z,47.77
2019-02-21T04:17:10.130Z,44.40
2019-02-21T04:19:44.936Z,43.53
2019-02-21T04:22:19.668Z,40.93
2019-02-21T04:24:54.374Z,41.83
2019-02-21T04:27:29.107Z,42.13
2019-02-21T04:30:05.857Z,42.80
2019-02-21T04:32:41.737Z,42.00
2019-02-21T04:35:22.308Z,40.40
2019-02-21T04:37:57.047Z,41.60
2019-02-21T04:40:31.819Z,40.03
2019-02-21T04:43:06.554Z,41.50
2019-02-21T04:45:41.432Z,41.50
2019-02-21T04:48:16.233Z,50.07
2019-02-21T04:50:50.998Z,80.57
2019-02-21T04:53:26.693Z,84.37
2019-02-21T04:56:01.404Z,50.77
2019-02-21T04:58:36.135Z,43.23
2019-02-21T05:01:10.840Z,40.67
2019-02-21T05:03:45.655Z,39.97
2019-02-21T05:06:20.375Z,41.50
2019-02-21T05:08:55.108Z,40.63
2019-02-21T05:11:30.859Z,42.70
2019-02-21T05:14:05.594Z,41.70
2019-02-21T05:16:40.383Z,43.30
2019-02-21T05:19:15.467Z,46.07
2019-02-21T05:21:50.214Z,48.60
2019-02-21T05:24:25.105Z,46.63
2019-02-21T05:27:06.194Z,43.80
2019-02-21T05:29:42.594Z,40.33
2019-02-21T05:32:41.007Z,39.87
2019-02-21T05:35:15.898Z,39.90
2019-02-21T05:38:09.771Z,39.00
2019-02-21T05:40:58.134Z,39.10
2019-02-21T05:43:46.707Z,39.83
2019-02-21T05:46:46.318Z,39.53
2019-02-21T05:49:41.381Z,39.70
2019-02-21T05:52:29.352Z,40.17
2019-02-21T05:55:24.221Z,41.53
2019-02-21T05:58:13.426Z,41.17
2019-02-21T06:00:58.173Z,41.57
2019-02-21T06:03:58.067Z,40.73
2019-02-21T06:07:09.765Z,40.97
2019-02-21T06:09:52.818Z,40.70
2019-02-21T06:12:34.607Z,41.53
2019-02-21T06:15:34.867Z,40.90
2019-02-21T06:18:29.042Z,40.10
2019-02-21T06:21:28.440Z,42.00
2019-02-21T06:24:12.994Z,43.30
2019-02-21T06:27:07.570Z,40.60
2019-02-21T06:29:53.678Z,42.00
2019-02-21T06:32:28.398Z,44.40
2019-02-21T06:35:03.296Z,43.43
2019-02-21T06:37:39.000Z,42.00
2019-02-21T06:40:13.918Z,42.70
2019-02-21T06:42:48.647Z,41.60
2019-02-21T06:45:23.379Z,43.73
2019-02-21T06:47:58.086Z,41.97
2019-02-21T06:50:32.807Z,42.53
2019-02-21T06:53:07.601Z,41.83
2019-02-21T06:55:42.339Z,42.20
2019-02-21T06:58:17.131Z,42.20
2019-02-21T07:00:52.040Z,41.93
2019-02-21T07:03:29.006Z,44.47
2019-02-21T07:06:03.335Z,43.73
2019-02-21T07:08:39.995Z,43.83
2019-02-21T07:11:15.611Z,42.80
2019-02-21T07:13:50.427Z,43.17
2019-02-21T07:16:25.149Z,42.70
2019-02-21T07:18:59.870Z,43.40
2019-02-21T07:21:36.516Z,44.20
2019-02-21T07:24:11.099Z,43.20
2019-02-21T07:26:46.848Z,45.60
2019-02-21T07:29:21.647Z,46.03
2019-02-21T07:31:56.362Z,45.60
2019-02-21T07:34:31.114Z,43.90
2019-02-21T07:37:05.896Z,41.63
2019-02-21T07:39:40.691Z,43.67
2019-02-21T07:42:15.435Z,44.37
2019-02-21T07:44:50.256Z,42.80
2019-02-21T07:47:25.064Z,43.43
2019-02-21T07:49:59.788Z,43.70
2019-02-21T07:52:34.519Z,42.93
2019-02-21T07:55:10.515Z,42.20
2019-02-21T07:57:46.648Z,43.37
2019-02-21T08:00:21.376Z,44.90
2019-02-21T08:02:56.351Z,47.40
2019-02-21T08:05:31.163Z,45.27
2019-02-21T08:08:06.008Z,47.77
2019-02-21T08:10:40.852Z,45.77
2019-02-21T08:13:15.554Z,46.13
2019-02-21T08:15:50.435Z,48.33
2019-02-21T08:18:25.226Z,50.83
2019-02-21T08:20:59.958Z,53.43
2019-02-21T08:23:34.674Z,53.93
2019-02-21T08:26:09.471Z,51.33
2019-02-21T08:28:44.181Z,53.80
2019-02-21T08:31:18.989Z,57.27
2019-02-21T08:34:00.223Z,67.37
2019-02-21T08:36:34.953Z,56.63
2019-02-21T08:39:10.434Z,52.13
2019-02-21T08:41:45.226Z,52.40
2019-02-21T08:44:19.939Z,56.03
2019-02-21T08:46:54.682Z,53.83
2019-02-21T08:49:30.167Z,55.60
2019-02-21T08:52:04.975Z,53.40
2019-02-21T08:54:39.776Z,55.20
2019-02-21T08:57:14.591Z,52.63
2019-02-21T08:59:49.318Z,54.30
2019-02-21T09:02:24.140Z,54.97
2019-02-21T09:04:58.846Z,56.63
2019-02-21T09:07:33.582Z,53.10
2019-02-21T09:10:10.191Z,59.43
2019-02-21T09:12:48.183Z,56.37
2019-02-21T09:15:21.446Z,51.33
2019-02-21T09:17:56.175Z,53.23
2019-02-21T09:20:30.890Z,55.90
2019-02-21T09:23:05.771Z,50.93
2019-02-21T09:25:40.478Z,51.17
2019-02-21T09:28:15.906Z,48.33
2019-02-21T09:30:50.879Z,49.13
2019-02-21T09:33:25.606Z,48.97
2019-02-21T09:36:00.363Z,49.27
2019-02-21T09:38:35.248Z,48.43
2019-02-21T09:41:10.059Z,47.57
2019-02-21T09:43:44.770Z,49.47
2019-02-21T09:46:19.583Z,47.27
2019-02-21T09:48:55.403Z,46.13
2019-02-21T09:51:30.139Z,46.97
2019-02-21T09:54:04.918Z,47.87
2019-02-21T09:56:39.718Z,46.80
2019-02-21T09:59:14.507Z,46.27
2019-02-21T10:01:49.306Z,47.00
2019-02-21T10:04:31.854Z,46.20
2019-02-21T10:07:00.610Z,47.47
2019-02-21T10:09:35.417Z,48.00
2019-02-21T10:12:10.224Z,47.83
2019-02-21T10:14:44.940Z,48.23
2019-02-21T10:17:19.683Z,49.07
2019-02-21T10:19:54.396Z,49.30
2019-02-21T10:22:29.383Z,48.97
2019-02-21T10:25:05.059Z,48.77
2019-02-21T10:27:39.791Z,48.53
2019-02-21T10:30:15.676Z,49.93
2019-02-21T10:32:50.555Z,48.40
2019-02-21T10:35:25.346Z,48.70
2019-02-21T10:38:00.227Z,46.83
2019-02-21T10:40:35.104Z,48.73
2019-02-21T10:43:09.924Z,49.30
2019-02-21T10:45:47.765Z,49.30
2019-02-21T10:48:21.310Z,48.67
2019-02-21T10:50:56.119Z,45.53
2019-02-21T10:53:32.043Z,46.63
2019-02-21T10:56:06.835Z,47.80
2019-02-21T10:58:41.653Z,46.97
2019-02-21T11:01:16.463Z,46.60
2019-02-21T11:03:57.370Z,46.50
2019-02-21T11:06:32.094Z,46.53
2019-02-21T11:09:12.339Z,46.00
2019-02-21T11:11:47.080Z,45.33
2019-02-21T11:14:21.917Z,45.53
2019-02-21T11:16:56.624Z,45.43
2019-02-21T11:19:31.375Z,45.50
2019-02-21T11:22:06.234Z,46.87
2019-02-21T11:24:40.990Z,46.77
2019-02-21T11:27:15.718Z,45.70
2019-02-21T11:29:50.510Z,45.50
2019-02-21T11:32:25.220Z,44.83
2019-02-21T11:35:06.384Z,46.27
2019-02-21T11:37:43.332Z,46.27
2019-02-21T11:40:14.015Z,46.50
2019-02-21T11:42:49.828Z,45.07
2019-02-21T11:45:24.711Z,44.60
2019-02-21T11:47:59.455Z,44.00
2019-02-21T11:50:42.478Z,46.93
2019-02-21T11:53:17.215Z,45.00
2019-02-21T11:55:51.954Z,46.07
2019-02-21T11:58:26.710Z,45.00
2019-02-21T12:01:01.515Z,47.60
2019-02-21T12:03:36.243Z,46.50
2019-02-21T12:06:11.142Z,47.80
2019-02-21T12:08:45.949Z,46.03
2019-02-21T12:11:20.688Z,44.67
2019-02-21T12:13:55.427Z,45.73
2019-02-21T12:16:30.244Z,45.07
2019-02-21T12:19:05.202Z,46.00
2019-02-21T12:21:40.068Z,45.27
2019-02-21T12:24:14.807Z,44.40
2019-02-21T12:26:49.572Z,44.40
2019-02-21T12:29:24.378Z,43.90
2019-02-21T12:31:59.258Z,44.57
2019-02-21T12:34:33.999Z,44.03
2019-02-21T12:37:08.737Z,43.70
2019-02-21T12:39:43.491Z,44.60
2019-02-21T12:42:18.346Z,44.27
2019-02-21T12:44:53.075Z,44.37
2019-02-21T12:47:27.856Z,44.77
2019-02-21T12:50:02.594Z,45.73
2019-02-21T12:52:38.395Z,44.37
2019-02-21T12:55:13.919Z,44.33
2019-02-21T12:57:48.635Z,43.80
2019-02-21T13:00:23.460Z,45.37
2019-02-21T13:02:58.187Z,45.23
2019-02-21T13:05:40.627Z,46.30
2019-02-21T13:08:09.355Z,44.30
2019-02-21T13:10:44.209Z,42.83
2019-02-21T13:13:19.015Z,42.30
2019-02-21T13:15:53.748Z,44.17
2019-02-21T13:18:28.487Z,42.93
2019-02-21T13:21:03.222Z,42.27
2019-02-21T13:23:38.131Z,42.27
2019-02-21T13:26:13.186Z,44.73
2019-02-21T13:28:48.459Z,42.53
2019-02-21T13:31:29.229Z,43.10
2019-02-21T13:34:04.132Z,41.17
2019-02-21T13:36:38.995Z,41.43
2019-02-21T13:39:13.728Z,42.03
2019-02-21T13:41:48.503Z,40.60
2019-02-21T13:44:23.227Z,41.37
2019-02-21T13:46:58.080Z,42.37
2019-02-21T13:49:32.803Z,43.37
2019-02-21T13:52:09.938Z,43.87
2019-02-21T13:54:44.679Z,44.70
2019-02-21T13:57:20.676Z,43.73
2019-02-21T13:59:55.399Z,43.77
2019-02-21T14:02:30.334Z,42.97
2019-02-21T14:05:06.586Z,43.57
2019-02-21T14:07:41.402Z,42.97
2019-02-21T14:10:16.233Z,43.90
2019-02-21T14:12:50.967Z,42.57
2019-02-21T14:15:26.052Z,43.30
2019-02-21T14:18:00.809Z,42.80
2019-02-21T14:20:45.011Z,44.33
2019-02-21T14:23:12.191Z,42.15
2019-02-21T14:25:47.062Z,43.80
2019-02-21T14:28:21.779Z,43.40
2019-02-21T14:30:56.543Z,43.80
2019-02-21T14:33:31.258Z,44.93
2019-02-21T14:36:15.140Z,44.20
2019-02-21T14:38:42.639Z,44.93
2019-02-21T14:41:17.510Z,44.00
2019-02-21T14:43:52.231Z,42.80
2019-02-21T14:46:27.146Z,44.20
2019-02-21T14:49:01.866Z,43.80
2019-02-21T14:51:36.613Z,42.87
2019-02-21T14:54:11.411Z,44.80
2019-02-21T14:56:46.214Z,41.73
2019-02-21T14:59:22.094Z,41.80
2019-02-21T15:01:58.053Z,43.80
2019-02-21T15:04:32.927Z,42.33
2019-02-21T15:07:07.759Z,43.17
2019-02-21T15:09:42.570Z,43.97
2019-02-21T15:12:17.410Z,42.95
2019-02-21T15:14:52.226Z,44.93
2019-02-21T15:17:27.040Z,44.50
2019-02-21T15:20:01.851Z,43.55
2019-02-21T15:22:37.659Z,42.77
2019-02-21T15:25:12.570Z,42.37
2019-02-21T15:27:47.380Z,41.75
2019-02-21T15:30:22.118Z,41.40
2019-02-21T15:32:56.951Z,43.47
2019-02-21T15:35:31.747Z,41.87
2019-02-21T15:38:06.565Z,42.43
2019-02-21T15:40:43.367Z,42.43
2019-02-21T15:43:17.876Z,41.83
2019-02-21T15:45:52.598Z,42.73
2019-02-21T15:48:27.417Z,42.23
2019-02-21T15:51:02.140Z,42.65
2019-02-21T15:53:37.963Z,42.03
2019-02-21T15:56:12.693Z,42.08
2019-02-21T15:58:47.590Z,41.07
2019-02-21T16:01:22.338Z,41.93
2019-02-21T16:03:58.253Z,40.55
2019-02-21T16:06:33.001Z,46.45
2019-02-21T16:09:16.348Z,41.93
2019-02-21T16:11:45.794Z,43.65
2019-02-21T16:14:20.603Z,42.80
2019-02-21T16:16:55.332Z,42.98
2019-02-21T16:19:30.180Z,42.65
2019-02-21T16:22:05.166Z,40.28
2019-02-21T16:24:39.919Z,41.13
2019-02-21T16:27:14.645Z,41.50
2019-02-21T16:29:49.386Z,40.65
2019-02-21T16:32:24.139Z,40.13
2019-02-21T16:34:59.047Z,41.37
2019-02-21T16:37:33.766Z,40.47
2019-02-21T16:40:10.462Z,40.52
2019-02-21T16:42:45.243Z,41.00
2019-02-21T16:45:20.215Z,39.83
2019-02-21T16:47:54.937Z,40.70
2019-02-21T16:50:30.924Z,42.20
2019-02-21T16:53:06.060Z,40.75
2019-02-21T16:55:40.820Z,41.70
2019-02-21T16:58:15.570Z,43.98
2019-02-21T17:00:54.757Z,42.70
2019-02-21T17:03:27.014Z,42.48
2019-02-21T17:06:03.559Z,43.27
2019-02-21T17:08:38.204Z,41.73
2019-02-21T17:11:13.245Z,41.68
2019-02-21T17:13:48.042Z,42.57
2019-02-21T17:16:22.914Z,41.53
2019-02-21T17:18:57.730Z,41.43
2019-02-21T17:21:32.863Z,42.07
2019-02-21T17:24:07.695Z,44.95
2019-02-21T17:26:42.557Z,44.43
2019-02-21T17:29:17.334Z,42.03
2019-02-21T17:31:52.067Z,41.70
2019-02-21T17:34:26.794Z,42.23
2019-02-21T17:37:03.635Z,42.60
2019-02-21T17:39:40.196Z,40.73
2019-02-21T17:42:14.920Z,40.87
2019-02-21T17:44:49.851Z,43.83
2019-02-21T17:47:26.730Z,42.73
2019-02-21T17:50:01.736Z,41.37
2019-02-21T17:52:38.287Z,40.80
2019-02-21T17:55:13.291Z,42.27
2019-02-21T17:57:48.012Z,40.97
2019-02-21T18:00:27.782Z,40.60
2019-02-21T18:03:02.586Z,40.37
2019-02-21T18:05:37.432Z,41.37
2019-02-21T18:08:12.224Z,40.20
2019-02-21T18:10:48.083Z,41.43
2019-02-21T18:13:22.871Z,40.93
2019-02-21T18:15:57.733Z,41.67
2019-02-21T18:18:32.583Z,41.10
2019-02-21T18:21:26.704Z,40.60
2019-02-21T18:24:20.782Z,41.50
2019-02-21T18:26:55.627Z,42.63
2019-02-21T18:29:30.379Z,43.43
2019-02-21T18:32:06.866Z,41.63
2019-02-21T18:34:41.583Z,44.03
2019-02-21T18:37:19.508Z,42.77
2019-02-21T18:39:54.274Z,43.07
2019-02-21T18:42:29.063Z,51.60
2019-02-21T18:45:04.150Z,53.47
2019-02-21T18:47:39.763Z,52.17
2019-02-21T18:50:15.003Z,44.50
2019-02-21T18:52:49.849Z,44.73
2019-02-21T18:55:24.712Z,44.77
2019-02-21T18:57:59.498Z,43.87
2019-02-21T19:00:34.235Z,43.80
2019-02-21T19:03:09.074Z,43.83
2019-02-21T19:05:43.799Z,41.03
2019-02-21T19:08:18.602Z,47.30
2019-02-21T19:10:53.414Z,44.37
2019-02-21T19:13:28.134Z,43.07
2019-02-21T19:16:35.377Z,43.47
2019-02-21T19:19:10.251Z,47.13
2019-02-21T19:21:44.980Z,45.47
2019-02-21T19:24:19.836Z,43.73
2019-02-21T19:26:54.793Z,43.07
2019-02-21T19:29:29.607Z,43.30
2019-02-21T19:32:05.281Z,42.47
2019-02-21T19:34:40.070Z,42.23
2019-02-21T19:37:15.048Z,42.63
2019-02-21T19:39:49.834Z,40.33
2019-02-21T19:42:24.620Z,42.43
2019-02-21T19:44:59.651Z,42.50
2019-02-21T19:47:34.447Z,42.80
2019-02-21T19:50:10.575Z,42.97
2019-02-21T19:52:45.317Z,42.97
2019-02-21T19:55:20.211Z,41.73
2019-02-21T19:57:54.958Z,43.07
2019-02-21T20:00:30.767Z,41.40
2019-02-21T20:03:05.738Z,41.97
2019-02-21T20:05:40.614Z,41.23
2019-02-21T20:08:27.751Z,41.77
2019-02-21T20:11:02.492Z,42.13
2019-02-21T20:13:37.503Z,42.00
2019-02-21T20:16:12.306Z,42.87
2019-02-21T20:18:47.038Z,44.87
2019-02-21T20:21:21.981Z,45.17
2019-02-21T20:23:56.806Z,43.43
2019-02-21T20:26:31.648Z,44.40
2019-02-21T20:29:06.530Z,42.93
2019-02-21T20:31:41.403Z,43.33
2019-02-21T20:34:16.384Z,42.40
2019-02-21T20:36:51.570Z,40.67
2019-02-21T20:39:26.363Z,42.03
2019-02-21T20:42:01.198Z,42.03
2019-02-21T20:44:36.231Z,41.43
2019-02-21T20:47:11.117Z,43.30
2019-02-21T20:49:46.004Z,41.47
2019-02-21T20:52:20.812Z,41.97
2019-02-21T20:54:55.691Z,41.03
2019-02-21T20:57:30.446Z,41.10
2019-02-21T21:00:07.543Z,42.07
2019-02-21T21:02:42.494Z,40.67
2019-02-21T21:05:17.615Z,42.00
2019-02-21T21:07:52.578Z,40.67
2019-02-21T21:10:27.459Z,40.90
2019-02-21T21:13:02.299Z,42.27
2019-02-21T21:15:37.038Z,41.07
2019-02-21T21:18:11.993Z,41.93
2019-02-21T21:20:46.734Z,42.60
2019-02-21T21:23:22.856Z,41.67
2019-02-21T21:25:57.683Z,42.93
2019-02-21T21:28:32.447Z,42.53
2019-02-21T21:31:07.378Z,42.87
2019-02-21T21:33:42.415Z,43.13
2019-02-21T21:36:17.207Z,42.70
2019-02-21T21:38:54.259Z,41.53
2019-02-21T21:41:28.356Z,41.60
2019-02-21T21:44:04.200Z,40.87
2019-02-21T21:46:39.084Z,40.77
2019-02-21T21:49:14.087Z,42.77
2019-02-21T21:51:48.830Z,42.90
2019-02-21T21:54:23.642Z,42.00
2019-02-21T21:56:58.354Z,41.40
2019-02-21T21:59:33.118Z,42.80
2019-02-21T22:02:07.895Z,41.20
2019-02-21T22:04:42.726Z,41.63
2019-02-21T22:07:17.519Z,42.83
2019-02-21T22:09:53.940Z,41.73
2019-02-21T22:12:28.758Z,43.03
2019-02-21T22:15:03.734Z,43.33
2019-02-21T22:17:42.125Z,42.13
2019-02-21T22:20:16.735Z,42.23
2019-02-21T22:22:51.483Z,43.37
2019-02-21T22:25:26.220Z,44.93
2019-02-21T22:28:00.974Z,42.43
2019-02-21T22:30:35.697Z,42.57
2019-02-21T22:33:10.503Z,43.83
2019-02-21T22:35:45.303Z,43.03
2019-02-21T22:38:20.070Z,42.40
2019-02-21T22:40:55.072Z,41.80
2019-02-21T22:43:29.809Z,42.10
2019-02-21T22:46:04.620Z,41.57
2019-02-21T22:48:47.012Z,40.73
2019-02-21T22:51:15.876Z,41.70
2019-02-21T22:53:50.757Z,42.20
2019-02-21T22:56:25.539Z,41.13
2019-02-21T22:59:00.304Z,42.00
2019-02-21T23:01:41.102Z,42.10
2019-02-21T23:04:38.934Z,41.70
2019-02-21T23:07:40.035Z,41.33
2019-02-21T23:10:14.938Z,41.20
2019-02-21T23:12:49.834Z,42.10
2019-02-21T23:15:24.638Z,41.73
2019-02-21T23:17:59.506Z,42.83
2019-02-21T23:20:34.318Z,40.67
2019-02-21T23:23:09.110Z,41.93
2019-02-21T23:25:44.007Z,42.73
2019-02-21T23:28:18.742Z,41.43
2019-02-21T23:30:53.567Z,41.93
2019-02-21T23:33:29.233Z,43.50
2019-02-21T23:36:04.116Z,42.40
2019-02-21T23:38:38.855Z,41.73
2019-02-21T23:41:13.671Z,42.70
2019-02-21T23:43:48.486Z,43.60
2019-02-21T23:46:24.273Z,42.67
2019-02-21T23:48:58.986Z,41.13
2019-02-21T23:51:33.715Z,42.00
2019-02-21T23:54:08.450Z,42.27
2019-02-21T23:56:43.166Z,42.50
2019-02-21T23:59:17.908Z,41.97
